TOM877 EGCC-GBYD
Flight info
| Callsign | TOM877 |
|---|---|
| Flight time | 6h 15m |
| Altitude | 23000 |
| Route | ASMIM DCT NOKIN P17 BEPHE/N0456F340 DCT OSSEP DCT ELNIF DCT ZESPE DCT DAWLY DCT BHD/N0453F360 DCT SALCO/N0456F350 DCT COQUE DCT KORUL DCT DEMOS DCT XANEL/N0457F370 DCT TELMU DCT ROLAR DCT EKNOT DCT ORTIS DCT PITAB DCT GOMER DCT URQUI DCT UDATI DCT BIPET/N0476F300 DCT SILUC DCT NOCUT UG853 BIMUT/N0459F390 DCT LIMAX/N0464F380 UB600 BJ |
| Aircraft | B38M/M-SDE1FGHILORVWXY/HB1 |
Departure
| Time | 2026-04-21 13:21 |
|---|---|
| Airport | Manchester Airport (EGCC) |
Arrival
| Time | 2026-04-21 19:37 |
|---|---|
| Airport | Banjul International Airport (GBYD) |
| Time | Latitude | Longitude | Altitude | Speed | Heading |
|---|---|---|---|---|---|
| 2026-04-21 12:45 | 53.36608 | -2.28623 | 215 ft | 0 kts | 129° |
| 2026-04-21 13:08 | 53.36617 | -2.28641 | 215 ft | 2 kts | 130° |
| 2026-04-21 13:09 | 53.36626 | -2.28660 | 216 ft | 2 kts | 129° |
| 2026-04-21 13:09 | 53.36637 | -2.28678 | 216 ft | 2 kts | 150° |
| 2026-04-21 13:09 | 53.36650 | -2.28687 | 216 ft | 2 kts | 167° |
| 2026-04-21 13:09 | 53.36665 | -2.28690 | 216 ft | 2 kts | 185° |
| 2026-04-21 13:10 | 53.36680 | -2.28684 | 216 ft | 2 kts | 203° |
| 2026-04-21 13:10 | 53.36692 | -2.28672 | 217 ft | 1 kts | 220° |
| 2026-04-21 13:10 | 53.36697 | -2.28665 | 217 ft | 1 kts | 224° |
| 2026-04-21 13:10 | 53.36697 | -2.28664 | 217 ft | 0 kts | 224° |
| 2026-04-21 13:13 | 53.36695 | -2.28667 | 217 ft | 1 kts | 224° |
| 2026-04-21 13:13 | 53.36679 | -2.28693 | 216 ft | 3 kts | 224° |
| 2026-04-21 13:13 | 53.36652 | -2.28736 | 217 ft | 8 kts | 224° |
| 2026-04-21 13:13 | 53.36583 | -2.28737 | 217 ft | 16 kts | 126° |
| 2026-04-21 13:14 | 53.36502 | -2.28584 | 214 ft | 17 kts | 135° |
| 2026-04-21 13:14 | 53.36424 | -2.28450 | 215 ft | 14 kts | 134° |
| 2026-04-21 13:14 | 53.36363 | -2.28352 | 218 ft | 9 kts | 135° |
| 2026-04-21 13:14 | 53.36327 | -2.28291 | 221 ft | 5 kts | 135° |
| 2026-04-21 13:15 | 53.36287 | -2.28223 | 225 ft | 10 kts | 134° |
| 2026-04-21 13:15 | 53.36223 | -2.28115 | 231 ft | 16 kts | 135° |
| 2026-04-21 13:15 | 53.36156 | -2.28003 | 236 ft | 11 kts | 135° |
| 2026-04-21 13:15 | 53.36094 | -2.27898 | 237 ft | 12 kts | 133° |
| 2026-04-21 13:16 | 53.36030 | -2.27835 | 239 ft | 11 kts | 170° |
| 2026-04-21 13:16 | 53.35915 | -2.27847 | 239 ft | 18 kts | 186° |
| 2026-04-21 13:16 | 53.35795 | -2.27867 | 239 ft | 16 kts | 186° |
| 2026-04-21 13:16 | 53.35690 | -2.27884 | 239 ft | 14 kts | 186° |
| 2026-04-21 13:17 | 53.35612 | -2.27930 | 239 ft | 10 kts | 230° |
| 2026-04-21 13:17 | 53.35556 | -2.28039 | 239 ft | 17 kts | 228° |
| 2026-04-21 13:17 | 53.35434 | -2.28155 | 236 ft | 22 kts | 188° |
| 2026-04-21 13:17 | 53.35295 | -2.28222 | 235 ft | 19 kts | 210° |
| 2026-04-21 13:18 | 53.35197 | -2.28375 | 232 ft | 19 kts | 231° |
| 2026-04-21 13:18 | 53.35113 | -2.28546 | 229 ft | 18 kts | 231° |
| 2026-04-21 13:18 | 53.35030 | -2.28716 | 226 ft | 18 kts | 231° |
| 2026-04-21 13:18 | 53.34943 | -2.28871 | 223 ft | 18 kts | 223° |
| 2026-04-21 13:19 | 53.34846 | -2.29035 | 215 ft | 21 kts | 227° |
| 2026-04-21 13:19 | 53.34755 | -2.29216 | 205 ft | 17 kts | 231° |
| 2026-04-21 13:19 | 53.34658 | -2.29336 | 199 ft | 16 kts | 191° |
| 2026-04-21 13:19 | 53.34562 | -2.29299 | 197 ft | 12 kts | 143° |
| 2026-04-21 13:20 | 53.34541 | -2.29214 | 199 ft | 4 kts | 70° |
| 2026-04-21 13:20 | 53.34545 | -2.29206 | 200 ft | 0 kts | 45° |
| 2026-04-21 13:20 | 53.34546 | -2.29205 | 200 ft | 2 kts | 45° |
| 2026-04-21 13:20 | 53.34685 | -2.28900 | 214 ft | 62 kts | 51° |
| 2026-04-21 13:21 | 53.35078 | -2.28107 | 234 ft | 114 kts | 51° |
| 2026-04-21 13:21 | 53.35670 | -2.26886 | 271 ft | 153 kts | 56° |
| 2026-04-21 13:21 | 53.36391 | -2.25494 | 611 ft | 165 kts | 47° |
| 2026-04-21 13:21 | 53.37188 | -2.24031 | 1106 ft | 176 kts | 53° |
| 2026-04-21 13:22 | 53.37998 | -2.22542 | 1851 ft | 173 kts | 49° |
| 2026-04-21 13:22 | 53.39100 | -2.21493 | 2162 ft | 198 kts | 18° |
| 2026-04-21 13:22 | 53.40533 | -2.21386 | 2499 ft | 217 kts | 7° |
| 2026-04-21 13:22 | 53.42083 | -2.21985 | 2715 ft | 248 kts | 338° |
| 2026-04-21 13:23 | 53.43341 | -2.24179 | 2977 ft | 277 kts | 301° |
| 2026-04-21 13:23 | 53.43713 | -2.27422 | 3296 ft | 297 kts | 265° |
| 2026-04-21 13:23 | 53.43525 | -2.30835 | 4087 ft | 294 kts | 274° |
| 2026-04-21 13:23 | 53.44031 | -2.34074 | 4737 ft | 291 kts | 302° |
| 2026-04-21 13:24 | 53.45145 | -2.36934 | 4961 ft | 295 kts | 309° |
| 2026-04-21 13:24 | 53.46284 | -2.39784 | 4965 ft | 293 kts | 306° |
| 2026-04-21 13:24 | 53.47067 | -2.42893 | 4961 ft | 294 kts | 278° |
| 2026-04-21 13:24 | 53.46957 | -2.46266 | 4990 ft | 294 kts | 257° |
| 2026-04-21 13:25 | 53.46473 | -2.49628 | 4970 ft | 296 kts | 255° |
| 2026-04-21 13:25 | 53.46014 | -2.53000 | 4970 ft | 295 kts | 257° |
| 2026-04-21 13:25 | 53.45609 | -2.56375 | 4974 ft | 296 kts | 258° |
| 2026-04-21 13:25 | 53.45219 | -2.59741 | 4971 ft | 296 kts | 256° |
| 2026-04-21 13:26 | 53.44567 | -2.62970 | 4968 ft | 293 kts | 239° |
| 2026-04-21 13:26 | 53.43309 | -2.65599 | 4970 ft | 284 kts | 211° |
| 2026-04-21 13:26 | 53.41591 | -2.67150 | 5100 ft | 287 kts | 195° |
| 2026-04-21 13:26 | 53.39772 | -2.68302 | 6022 ft | 276 kts | 194° |
| 2026-04-21 13:27 | 53.37967 | -2.69441 | 6654 ft | 279 kts | 194° |
| 2026-04-21 13:27 | 53.36158 | -2.70579 | 7289 ft | 281 kts | 194° |
| 2026-04-21 13:27 | 53.34340 | -2.71720 | 7924 ft | 282 kts | 195° |
| 2026-04-21 13:27 | 53.32509 | -2.72866 | 8537 ft | 284 kts | 195° |
| 2026-04-21 13:28 | 53.30644 | -2.74031 | 9172 ft | 285 kts | 195° |
| 2026-04-21 13:28 | 53.28787 | -2.75188 | 9778 ft | 287 kts | 195° |
| 2026-04-21 13:28 | 53.26939 | -2.76338 | 10370 ft | 289 kts | 195° |
| 2026-04-21 13:28 | 53.25043 | -2.77516 | 10932 ft | 292 kts | 196° |
| 2026-04-21 13:29 | 53.23161 | -2.78687 | 11537 ft | 293 kts | 196° |
| 2026-04-21 13:29 | 53.21230 | -2.79885 | 12110 ft | 296 kts | 196° |
| 2026-04-21 13:29 | 53.19319 | -2.81070 | 12694 ft | 298 kts | 196° |
| 2026-04-21 13:29 | 53.17314 | -2.82308 | 12948 ft | 313 kts | 196° |
| 2026-04-21 13:30 | 53.15252 | -2.83581 | 13227 ft | 326 kts | 197° |
| 2026-04-21 13:30 | 53.13067 | -2.84930 | 13422 ft | 342 kts | 197° |
| 2026-04-21 13:30 | 53.10798 | -2.86329 | 13622 ft | 356 kts | 197° |
| 2026-04-21 13:30 | 53.08424 | -2.87555 | 13808 ft | 367 kts | 188° |
| 2026-04-21 13:31 | 53.05849 | -2.87881 | 13969 ft | 376 kts | 172° |
| 2026-04-21 13:31 | 53.03266 | -2.87284 | 14466 ft | 377 kts | 167° |
| 2026-04-21 13:31 | 53.00653 | -2.86508 | 14986 ft | 381 kts | 167° |
| 2026-04-21 13:31 | 52.98055 | -2.85743 | 15501 ft | 385 kts | 167° |
| 2026-04-21 13:32 | 52.95435 | -2.84999 | 16043 ft | 388 kts | 168° |
| 2026-04-21 13:32 | 52.92756 | -2.84257 | 16542 ft | 392 kts | 168° |
| 2026-04-21 13:32 | 52.90081 | -2.83525 | 17052 ft | 395 kts | 168° |
| 2026-04-21 13:32 | 52.87348 | -2.82783 | 17509 ft | 399 kts | 168° |
| 2026-04-21 13:33 | 52.84625 | -2.82047 | 18050 ft | 401 kts | 168° |
| 2026-04-21 13:33 | 52.81855 | -2.81300 | 18447 ft | 406 kts | 168° |
| 2026-04-21 13:33 | 52.79075 | -2.80551 | 18820 ft | 412 kts | 168° |
| 2026-04-21 13:33 | 52.76212 | -2.79781 | 19122 ft | 419 kts | 169° |
| 2026-04-21 13:34 | 52.73340 | -2.79012 | 19533 ft | 423 kts | 169° |
| 2026-04-21 13:34 | 52.70424 | -2.78233 | 19913 ft | 427 kts | 169° |
| 2026-04-21 13:34 | 52.67462 | -2.77442 | 20204 ft | 434 kts | 170° |
| 2026-04-21 13:34 | 52.64521 | -2.76688 | 20664 ft | 436 kts | 172° |
| 2026-04-21 13:35 | 52.61485 | -2.76158 | 20899 ft | 443 kts | 177° |
| 2026-04-21 13:35 | 52.58390 | -2.76097 | 21288 ft | 445 kts | 182° |
| 2026-04-21 13:35 | 52.55289 | -2.76279 | 21637 ft | 449 kts | 184° |
| 2026-04-21 13:35 | 52.52180 | -2.76541 | 21979 ft | 453 kts | 185° |
| 2026-04-21 13:36 | 52.49000 | -2.76827 | 22408 ft | 454 kts | 185° |
| 2026-04-21 13:36 | 52.45824 | -2.77112 | 22594 ft | 462 kts | 186° |
| 2026-04-21 13:36 | 52.42653 | -2.77392 | 23036 ft | 462 kts | 186° |
| 2026-04-21 13:36 | 52.39398 | -2.77680 | 23302 ft | 467 kts | 187° |
| 2026-04-21 13:37 | 52.36185 | -2.77960 | 23576 ft | 471 kts | 187° |
| 2026-04-21 13:37 | 52.32925 | -2.78242 | 24014 ft | 471 kts | 187° |
| 2026-04-21 13:37 | 52.29634 | -2.78525 | 24380 ft | 473 kts | 188° |
| 2026-04-21 13:37 | 52.26379 | -2.78806 | 24710 ft | 476 kts | 188° |
| 2026-04-21 13:38 | 52.23045 | -2.79095 | 25085 ft | 478 kts | 188° |
| 2026-04-21 13:38 | 52.19746 | -2.79379 | 25451 ft | 479 kts | 188° |
| 2026-04-21 13:38 | 52.16440 | -2.79663 | 25778 ft | 481 kts | 188° |
| 2026-04-21 13:38 | 52.13076 | -2.79952 | 26081 ft | 484 kts | 188° |
| 2026-04-21 13:39 | 52.09719 | -2.80241 | 26328 ft | 488 kts | 188° |
| 2026-04-21 13:39 | 52.06297 | -2.80529 | 26626 ft | 490 kts | 188° |
| 2026-04-21 13:39 | 52.02902 | -2.80820 | 26973 ft | 491 kts | 189° |
| 2026-04-21 13:39 | 51.99497 | -2.81108 | 27403 ft | 490 kts | 188° |
| 2026-04-21 13:40 | 51.96108 | -2.81390 | 27842 ft | 488 kts | 188° |
| 2026-04-21 13:40 | 51.92722 | -2.81664 | 28364 ft | 485 kts | 189° |
| 2026-04-21 13:40 | 51.89366 | -2.81936 | 28918 ft | 481 kts | 189° |
| 2026-04-21 13:40 | 51.86026 | -2.82214 | 29412 ft | 477 kts | 189° |
| 2026-04-21 13:41 | 51.82751 | -2.82619 | 29777 ft | 474 kts | 192° |
| 2026-04-21 13:41 | 51.79500 | -2.83277 | 29995 ft | 475 kts | 194° |
| 2026-04-21 13:41 | 51.76229 | -2.84040 | 30320 ft | 474 kts | 194° |
| 2026-04-21 13:41 | 51.73002 | -2.84789 | 30907 ft | 468 kts | 194° |
| 2026-04-21 13:42 | 51.69819 | -2.85511 | 31488 ft | 461 kts | 194° |
| 2026-04-21 13:42 | 51.66670 | -2.86212 | 31993 ft | 456 kts | 194° |
| 2026-04-21 13:42 | 51.60335 | -2.87614 | 32063 ft | 468 kts | 194° |
| 2026-04-21 13:43 | 51.53945 | -2.89777 | 32323 ft | 466 kts | 203° |
| 2026-04-21 13:43 | 51.50896 | -2.91400 | 32668 ft | 461 kts | 205° |
| 2026-04-21 13:43 | 51.47892 | -2.93145 | 33023 ft | 458 kts | 206° |
| 2026-04-21 13:44 | 51.44933 | -2.94914 | 33233 ft | 458 kts | 206° |
| 2026-04-21 13:44 | 51.41923 | -2.96724 | 33253 ft | 459 kts | 206° |
| 2026-04-21 13:44 | 51.36005 | -3.00266 | 33258 ft | 453 kts | 206° |
| 2026-04-21 13:45 | 51.30117 | -3.03782 | 33259 ft | 454 kts | 206° |
| 2026-04-21 13:45 | 51.24243 | -3.07282 | 33253 ft | 454 kts | 206° |
| 2026-04-21 13:46 | 51.18311 | -3.10802 | 33251 ft | 454 kts | 206° |
| 2026-04-21 13:46 | 51.12423 | -3.14286 | 33241 ft | 453 kts | 206° |
| 2026-04-21 13:47 | 51.06545 | -3.17755 | 33241 ft | 454 kts | 206° |
| 2026-04-21 13:47 | 51.00625 | -3.21238 | 33238 ft | 452 kts | 206° |
| 2026-04-21 13:48 | 50.94763 | -3.24677 | 33228 ft | 451 kts | 206° |
| 2026-04-21 13:48 | 50.88878 | -3.28122 | 33229 ft | 452 kts | 206° |
| 2026-04-21 13:49 | 50.83040 | -3.31527 | 33220 ft | 449 kts | 206° |
| 2026-04-21 13:49 | 50.77163 | -3.34951 | 33222 ft | 451 kts | 206° |
| 2026-04-21 13:50 | 50.71305 | -3.38353 | 33227 ft | 450 kts | 206° |
| 2026-04-21 13:50 | 50.65469 | -3.41732 | 33222 ft | 448 kts | 206° |
| 2026-04-21 13:51 | 50.59592 | -3.45016 | 33218 ft | 451 kts | 203° |
| 2026-04-21 13:51 | 50.53451 | -3.47088 | 33216 ft | 457 kts | 193° |
| 2026-04-21 13:52 | 50.47138 | -3.48210 | 33209 ft | 459 kts | 192° |
| 2026-04-21 13:52 | 50.40824 | -3.49238 | 33204 ft | 457 kts | 192° |
| 2026-04-21 13:53 | 50.34429 | -3.49901 | 33199 ft | 461 kts | 187° |
| 2026-04-21 13:53 | 50.28057 | -3.50154 | 33197 ft | 462 kts | 187° |
| 2026-04-21 13:54 | 50.21667 | -3.50428 | 33192 ft | 459 kts | 187° |
| 2026-04-21 13:54 | 50.15283 | -3.50742 | 33192 ft | 460 kts | 187° |
| 2026-04-21 13:55 | 50.08924 | -3.51071 | 33184 ft | 458 kts | 188° |
| 2026-04-21 13:55 | 50.02586 | -3.51407 | 33184 ft | 459 kts | 187° |
| 2026-04-21 13:56 | 49.96186 | -3.51749 | 33183 ft | 459 kts | 187° |
| 2026-04-21 13:56 | 49.89858 | -3.52087 | 33173 ft | 458 kts | 188° |
| 2026-04-21 13:57 | 49.83455 | -3.52431 | 33171 ft | 459 kts | 187° |
| 2026-04-21 13:57 | 49.77092 | -3.52882 | 33168 ft | 454 kts | 191° |
| 2026-04-21 13:58 | 49.70953 | -3.54691 | 33160 ft | 446 kts | 203° |
| 2026-04-21 13:58 | 49.65117 | -3.57833 | 33156 ft | 446 kts | 206° |
| 2026-04-21 13:59 | 49.59334 | -3.61212 | 33150 ft | 443 kts | 206° |
| 2026-04-21 13:59 | 49.53611 | -3.64546 | 33144 ft | 443 kts | 206° |
| 2026-04-21 14:00 | 49.47836 | -3.67885 | 33143 ft | 444 kts | 205° |
| 2026-04-21 14:00 | 49.42053 | -3.71213 | 33137 ft | 444 kts | 205° |
| 2026-04-21 14:01 | 49.36267 | -3.74532 | 33126 ft | 443 kts | 205° |
| 2026-04-21 14:01 | 49.30495 | -3.77831 | 33131 ft | 444 kts | 205° |
| 2026-04-21 14:02 | 49.24736 | -3.81112 | 33117 ft | 441 kts | 205° |
| 2026-04-21 14:03 | 49.16110 | -3.86015 | 33109 ft | 443 kts | 205° |
| 2026-04-21 14:03 | 49.10366 | -3.89268 | 33104 ft | 443 kts | 205° |
| 2026-04-21 14:04 | 49.04599 | -3.92528 | 33098 ft | 443 kts | 205° |
| 2026-04-21 14:04 | 48.98802 | -3.95794 | 33096 ft | 442 kts | 205° |
| 2026-04-21 14:05 | 48.93048 | -3.99028 | 33082 ft | 441 kts | 205° |
| 2026-04-21 14:05 | 48.87281 | -4.02261 | 33080 ft | 440 kts | 205° |
| 2026-04-21 14:06 | 48.81535 | -4.05475 | 33084 ft | 441 kts | 205° |
| 2026-04-21 14:06 | 48.75815 | -4.08667 | 33073 ft | 439 kts | 205° |
| 2026-04-21 14:07 | 48.70112 | -4.11839 | 33066 ft | 438 kts | 204° |
| 2026-04-21 14:07 | 48.64377 | -4.15026 | 33061 ft | 440 kts | 204° |
| 2026-04-21 14:08 | 48.58658 | -4.18194 | 33063 ft | 439 kts | 204° |
| 2026-04-21 14:08 | 48.52946 | -4.21351 | 33064 ft | 438 kts | 204° |
| 2026-04-21 14:09 | 48.47221 | -4.24507 | 33055 ft | 437 kts | 204° |
| 2026-04-21 14:09 | 48.41533 | -4.27634 | 33049 ft | 437 kts | 204° |
| 2026-04-21 14:10 | 48.35847 | -4.30755 | 33046 ft | 437 kts | 204° |
| 2026-04-21 14:10 | 48.30160 | -4.33867 | 33039 ft | 436 kts | 204° |
| 2026-04-21 14:11 | 48.24461 | -4.36980 | 33033 ft | 436 kts | 204° |
| 2026-04-21 14:11 | 48.18809 | -4.40059 | 33030 ft | 434 kts | 204° |
| 2026-04-21 14:12 | 48.13116 | -4.43153 | 33023 ft | 434 kts | 204° |
| 2026-04-21 14:12 | 48.07465 | -4.46217 | 33009 ft | 434 kts | 204° |
| 2026-04-21 14:13 | 48.01804 | -4.49280 | 33011 ft | 434 kts | 204° |
| 2026-04-21 14:13 | 47.96119 | -4.52346 | 32998 ft | 433 kts | 203° |
| 2026-04-21 14:14 | 47.90455 | -4.55395 | 32994 ft | 433 kts | 203° |
| 2026-04-21 14:14 | 47.84810 | -4.58426 | 32986 ft | 433 kts | 203° |
| 2026-04-21 14:15 | 47.79133 | -4.61469 | 32981 ft | 431 kts | 203° |
| 2026-04-21 14:15 | 47.73525 | -4.64468 | 32979 ft | 431 kts | 203° |
| 2026-04-21 14:16 | 47.67888 | -4.67474 | 32981 ft | 431 kts | 202° |
| 2026-04-21 14:16 | 47.62280 | -4.70458 | 32977 ft | 429 kts | 202° |
| 2026-04-21 14:17 | 47.56654 | -4.73445 | 32970 ft | 429 kts | 202° |
| 2026-04-21 14:17 | 47.51039 | -4.76419 | 32965 ft | 429 kts | 202° |
| 2026-04-21 14:18 | 47.45413 | -4.79393 | 32958 ft | 428 kts | 202° |
| 2026-04-21 14:18 | 47.39850 | -4.82327 | 32957 ft | 428 kts | 202° |
| 2026-04-21 14:19 | 47.34233 | -4.85283 | 32956 ft | 428 kts | 202° |
| 2026-04-21 14:19 | 47.28639 | -4.88218 | 32951 ft | 426 kts | 202° |
| 2026-04-21 14:20 | 47.23061 | -4.91139 | 32949 ft | 425 kts | 202° |
| 2026-04-21 14:20 | 47.17517 | -4.94038 | 33110 ft | 428 kts | 202° |
| 2026-04-21 14:20 | 47.14696 | -4.95509 | 33609 ft | 423 kts | 202° |
| 2026-04-21 14:21 | 47.11971 | -4.96927 | 34107 ft | 418 kts | 202° |
| 2026-04-21 14:21 | 47.09271 | -4.98475 | 34329 ft | 418 kts | 206° |
| 2026-04-21 14:21 | 47.06685 | -5.00362 | 34591 ft | 416 kts | 211° |
| 2026-04-21 14:21 | 47.04188 | -5.02457 | 34892 ft | 414 kts | 212° |
| 2026-04-21 14:22 | 47.01728 | -5.04609 | 34938 ft | 416 kts | 213° |
| 2026-04-21 14:22 | 46.96795 | -5.09038 | 34944 ft | 412 kts | 213° |
| 2026-04-21 14:23 | 46.91976 | -5.13360 | 34940 ft | 409 kts | 213° |
| 2026-04-21 14:23 | 46.87102 | -5.17719 | 34938 ft | 411 kts | 213° |
| 2026-04-21 14:24 | 46.82272 | -5.22034 | 34932 ft | 410 kts | 213° |
| 2026-04-21 14:24 | 46.77409 | -5.26368 | 34915 ft | 408 kts | 213° |
| 2026-04-21 14:25 | 46.72552 | -5.30685 | 34912 ft | 410 kts | 213° |
| 2026-04-21 14:25 | 46.67699 | -5.34991 | 34915 ft | 408 kts | 213° |
| 2026-04-21 14:26 | 46.62898 | -5.39240 | 34902 ft | 407 kts | 213° |
| 2026-04-21 14:26 | 46.58084 | -5.43498 | 34898 ft | 406 kts | 213° |
| 2026-04-21 14:27 | 46.53258 | -5.47753 | 34890 ft | 404 kts | 213° |
| 2026-04-21 14:27 | 46.48490 | -5.51946 | 34886 ft | 404 kts | 212° |
| 2026-04-21 14:28 | 46.43666 | -5.56184 | 34887 ft | 404 kts | 212° |
| 2026-04-21 14:28 | 46.38882 | -5.60378 | 34887 ft | 404 kts | 212° |
| 2026-04-21 14:29 | 46.34087 | -5.64569 | 34879 ft | 404 kts | 212° |
| 2026-04-21 14:29 | 46.29310 | -5.68733 | 34877 ft | 402 kts | 212° |
| 2026-04-21 14:30 | 46.24520 | -5.72905 | 34867 ft | 400 kts | 211° |
| 2026-04-21 14:30 | 46.19764 | -5.77034 | 34864 ft | 401 kts | 212° |
| 2026-04-21 14:31 | 46.15007 | -5.81158 | 34856 ft | 399 kts | 211° |
| 2026-04-21 14:31 | 46.10260 | -5.85267 | 34837 ft | 398 kts | 211° |
| 2026-04-21 14:32 | 46.05554 | -5.89332 | 34839 ft | 398 kts | 211° |
| 2026-04-21 14:32 | 46.00800 | -5.93430 | 34818 ft | 397 kts | 211° |
| 2026-04-21 14:33 | 45.96105 | -5.97471 | 34822 ft | 395 kts | 211° |
| 2026-04-21 14:33 | 45.91360 | -6.01541 | 34819 ft | 396 kts | 211° |
| 2026-04-21 14:34 | 45.86664 | -6.05564 | 34813 ft | 395 kts | 211° |
| 2026-04-21 14:34 | 45.81949 | -6.09596 | 34813 ft | 396 kts | 211° |
| 2026-04-21 14:35 | 45.77228 | -6.13624 | 34806 ft | 395 kts | 211° |
| 2026-04-21 14:35 | 45.72534 | -6.17622 | 34810 ft | 396 kts | 211° |
| 2026-04-21 14:36 | 45.67795 | -6.21651 | 34801 ft | 394 kts | 210° |
| 2026-04-21 14:36 | 45.63103 | -6.25632 | 34798 ft | 394 kts | 211° |
| 2026-04-21 14:37 | 45.58411 | -6.29609 | 34799 ft | 393 kts | 211° |
| 2026-04-21 14:37 | 45.53708 | -6.33583 | 34803 ft | 394 kts | 211° |
| 2026-04-21 14:38 | 45.49016 | -6.37539 | 34801 ft | 392 kts | 210° |
| 2026-04-21 14:38 | 45.44350 | -6.41468 | 34802 ft | 393 kts | 210° |
| 2026-04-21 14:39 | 45.39648 | -6.45417 | 34788 ft | 391 kts | 210° |
| 2026-04-21 14:39 | 45.34977 | -6.49333 | 34793 ft | 392 kts | 210° |
| 2026-04-21 14:40 | 45.30299 | -6.53249 | 34786 ft | 390 kts | 210° |
| 2026-04-21 14:40 | 45.25630 | -6.57150 | 34777 ft | 389 kts | 210° |
| 2026-04-21 14:41 | 45.20969 | -6.61027 | 34777 ft | 390 kts | 210° |
| 2026-04-21 14:41 | 45.16315 | -6.64897 | 34779 ft | 389 kts | 210° |
| 2026-04-21 14:42 | 45.11674 | -6.68758 | 34772 ft | 387 kts | 208° |
| 2026-04-21 14:42 | 45.07006 | -6.72627 | 34775 ft | 388 kts | 208° |
| 2026-04-21 14:43 | 45.02391 | -6.76435 | 34778 ft | 386 kts | 208° |
| 2026-04-21 14:43 | 44.97752 | -6.80253 | 34760 ft | 386 kts | 208° |
| 2026-04-21 14:44 | 44.93111 | -6.84093 | 34759 ft | 388 kts | 208° |
| 2026-04-21 14:44 | 44.88490 | -6.87885 | 34765 ft | 387 kts | 208° |
| 2026-04-21 14:45 | 44.83826 | -6.91730 | 34746 ft | 390 kts | 208° |
| 2026-04-21 14:45 | 44.79236 | -6.95723 | 34748 ft | 386 kts | 210° |
| 2026-04-21 14:46 | 44.74687 | -6.99793 | 34745 ft | 391 kts | 209° |
| 2026-04-21 14:46 | 44.70079 | -7.03875 | 34721 ft | 390 kts | 209° |
| 2026-04-21 14:47 | 44.65505 | -7.07905 | 34723 ft | 390 kts | 209° |
| 2026-04-21 14:47 | 44.60902 | -7.11958 | 34733 ft | 389 kts | 210° |
| 2026-04-21 14:48 | 44.56325 | -7.16009 | 34729 ft | 392 kts | 209° |
| 2026-04-21 14:48 | 44.51702 | -7.20066 | 34722 ft | 394 kts | 210° |
| 2026-04-21 14:49 | 44.47074 | -7.24116 | 34729 ft | 393 kts | 210° |
| 2026-04-21 14:49 | 44.42452 | -7.28171 | 34720 ft | 395 kts | 209° |
| 2026-04-21 14:50 | 44.37795 | -7.32243 | 34720 ft | 396 kts | 210° |
| 2026-04-21 14:50 | 44.33129 | -7.36312 | 34708 ft | 397 kts | 209° |
| 2026-04-21 14:51 | 44.28451 | -7.40386 | 34704 ft | 396 kts | 210° |
| 2026-04-21 14:51 | 44.23801 | -7.44436 | 34703 ft | 398 kts | 209° |
| 2026-04-21 14:52 | 44.19108 | -7.48492 | 34689 ft | 398 kts | 210° |
| 2026-04-21 14:52 | 44.14412 | -7.52556 | 34696 ft | 395 kts | 209° |
| 2026-04-21 14:53 | 44.09754 | -7.56578 | 34687 ft | 398 kts | 209° |
| 2026-04-21 14:53 | 44.05064 | -7.60616 | 34676 ft | 395 kts | 210° |
| 2026-04-21 14:54 | 44.00409 | -7.64629 | 34656 ft | 396 kts | 209° |
| 2026-04-21 14:54 | 43.95725 | -7.68645 | 34655 ft | 397 kts | 208° |
| 2026-04-21 14:55 | 43.91053 | -7.72647 | 34654 ft | 395 kts | 208° |
| 2026-04-21 14:55 | 43.86367 | -7.76653 | 34655 ft | 399 kts | 208° |
| 2026-04-21 14:56 | 43.81686 | -7.80651 | 34651 ft | 394 kts | 208° |
| 2026-04-21 14:56 | 43.77049 | -7.84601 | 34647 ft | 396 kts | 207° |
| 2026-04-21 14:57 | 43.72349 | -7.88587 | 34643 ft | 397 kts | 208° |
| 2026-04-21 14:57 | 43.67650 | -7.92592 | 34644 ft | 396 kts | 208° |
| 2026-04-21 14:58 | 43.62963 | -7.96583 | 34652 ft | 396 kts | 208° |
| 2026-04-21 14:58 | 43.58282 | -8.00541 | 34664 ft | 394 kts | 206° |
| 2026-04-21 14:59 | 43.53603 | -8.04463 | 34669 ft | 398 kts | 207° |
| 2026-04-21 14:59 | 43.48928 | -8.08404 | 34684 ft | 395 kts | 208° |
| 2026-04-21 15:00 | 43.44226 | -8.12360 | 34687 ft | 397 kts | 207° |
| 2026-04-21 15:00 | 43.39534 | -8.16310 | 34680 ft | 394 kts | 207° |
| 2026-04-21 15:01 | 43.34864 | -8.20231 | 34681 ft | 398 kts | 206° |
| 2026-04-21 15:01 | 43.30140 | -8.24178 | 34679 ft | 395 kts | 206° |
| 2026-04-21 15:02 | 43.25457 | -8.28070 | 34680 ft | 395 kts | 206° |
| 2026-04-21 15:02 | 43.20744 | -8.32005 | 34686 ft | 397 kts | 206° |
| 2026-04-21 15:03 | 43.16020 | -8.35936 | 34686 ft | 395 kts | 206° |
| 2026-04-21 15:03 | 43.11383 | -8.39788 | 34704 ft | 393 kts | 206° |
| 2026-04-21 15:04 | 43.06671 | -8.43695 | 34702 ft | 395 kts | 206° |
| 2026-04-21 15:04 | 43.02002 | -8.47560 | 34710 ft | 396 kts | 206° |
| 2026-04-21 15:05 | 42.97302 | -8.51440 | 34709 ft | 396 kts | 206° |
| 2026-04-21 15:05 | 42.90251 | -8.57247 | 34713 ft | 396 kts | 206° |
| 2026-04-21 15:06 | 42.85523 | -8.61130 | 34716 ft | 396 kts | 207° |
| 2026-04-21 15:06 | 42.80850 | -8.64969 | 34717 ft | 395 kts | 206° |
| 2026-04-21 15:07 | 42.76129 | -8.68838 | 34719 ft | 395 kts | 206° |
| 2026-04-21 15:07 | 42.71431 | -8.72680 | 34723 ft | 399 kts | 206° |
| 2026-04-21 15:08 | 42.66711 | -8.76538 | 34719 ft | 396 kts | 206° |
| 2026-04-21 15:08 | 42.61997 | -8.80377 | 34714 ft | 395 kts | 206° |
| 2026-04-21 15:09 | 42.57282 | -8.84214 | 34706 ft | 397 kts | 206° |
| 2026-04-21 15:09 | 42.52542 | -8.88066 | 34697 ft | 394 kts | 206° |
| 2026-04-21 15:10 | 42.47863 | -8.91857 | 34692 ft | 394 kts | 206° |
| 2026-04-21 15:10 | 42.43146 | -8.95670 | 34690 ft | 395 kts | 206° |
| 2026-04-21 15:11 | 42.38437 | -8.99473 | 34694 ft | 393 kts | 206° |
| 2026-04-21 15:11 | 42.33774 | -9.03234 | 34693 ft | 393 kts | 206° |
| 2026-04-21 15:12 | 42.29096 | -9.07007 | 34695 ft | 392 kts | 206° |
| 2026-04-21 15:12 | 42.24394 | -9.10787 | 34692 ft | 394 kts | 206° |
| 2026-04-21 15:13 | 42.19693 | -9.14554 | 34700 ft | 392 kts | 206° |
| 2026-04-21 15:13 | 42.15039 | -9.18280 | 34705 ft | 390 kts | 206° |
| 2026-04-21 15:14 | 42.10367 | -9.22013 | 34702 ft | 390 kts | 207° |
| 2026-04-21 15:14 | 42.05742 | -9.25706 | 34707 ft | 387 kts | 207° |
| 2026-04-21 15:15 | 42.01121 | -9.29390 | 34705 ft | 389 kts | 206° |
| 2026-04-21 15:15 | 41.96463 | -9.33094 | 34702 ft | 387 kts | 207° |
| 2026-04-21 15:16 | 41.91965 | -9.37109 | 34704 ft | 393 kts | 214° |
| 2026-04-21 15:16 | 41.87793 | -9.41862 | 34712 ft | 396 kts | 216° |
| 2026-04-21 15:17 | 41.83692 | -9.46700 | 34704 ft | 393 kts | 216° |
| 2026-04-21 15:17 | 41.79567 | -9.51572 | 34705 ft | 395 kts | 216° |
| 2026-04-21 15:18 | 41.75468 | -9.56401 | 34705 ft | 394 kts | 216° |
| 2026-04-21 15:18 | 41.71346 | -9.61252 | 34700 ft | 394 kts | 217° |
| 2026-04-21 15:19 | 41.67260 | -9.66055 | 34702 ft | 394 kts | 216° |
| 2026-04-21 15:19 | 41.63134 | -9.70892 | 34693 ft | 392 kts | 216° |
| 2026-04-21 15:20 | 41.59028 | -9.75699 | 34701 ft | 394 kts | 216° |
| 2026-04-21 15:20 | 41.54909 | -9.80514 | 34685 ft | 393 kts | 217° |
| 2026-04-21 15:21 | 41.50807 | -9.85297 | 34692 ft | 394 kts | 217° |
| 2026-04-21 15:21 | 41.46652 | -9.90124 | 34688 ft | 398 kts | 217° |
| 2026-04-21 15:22 | 41.42524 | -9.94942 | 34675 ft | 393 kts | 217° |
| 2026-04-21 15:22 | 41.38400 | -9.99729 | 34685 ft | 396 kts | 217° |
| 2026-04-21 15:23 | 41.34255 | -10.04529 | 34673 ft | 395 kts | 217° |
| 2026-04-21 15:23 | 41.30101 | -10.09313 | 34686 ft | 399 kts | 218° |
| 2026-04-21 15:24 | 41.25930 | -10.14133 | 34697 ft | 397 kts | 218° |
| 2026-04-21 15:24 | 41.21738 | -10.18957 | 34705 ft | 399 kts | 219° |
| 2026-04-21 15:25 | 41.17566 | -10.23740 | 34698 ft | 400 kts | 219° |
| 2026-04-21 15:25 | 41.13365 | -10.28575 | 34713 ft | 401 kts | 220° |
| 2026-04-21 15:26 | 41.09166 | -10.33395 | 34703 ft | 400 kts | 219° |
| 2026-04-21 15:26 | 41.04932 | -10.38246 | 34710 ft | 402 kts | 220° |
| 2026-04-21 15:27 | 41.00715 | -10.43069 | 34704 ft | 400 kts | 220° |
| 2026-04-21 15:27 | 40.96491 | -10.47892 | 34726 ft | 402 kts | 220° |
| 2026-04-21 15:28 | 40.92259 | -10.52710 | 34722 ft | 402 kts | 220° |
| 2026-04-21 15:28 | 40.88047 | -10.57497 | 34723 ft | 401 kts | 220° |
| 2026-04-21 15:29 | 40.83810 | -10.62302 | 34731 ft | 402 kts | 221° |
| 2026-04-21 15:29 | 40.79575 | -10.67098 | 34733 ft | 400 kts | 220° |
| 2026-04-21 15:30 | 40.75354 | -10.71870 | 34733 ft | 403 kts | 221° |
| 2026-04-21 15:30 | 40.71109 | -10.76662 | 34733 ft | 404 kts | 221° |
| 2026-04-21 15:31 | 40.66840 | -10.81471 | 34732 ft | 402 kts | 221° |
| 2026-04-21 15:31 | 40.62574 | -10.86269 | 34745 ft | 404 kts | 222° |
| 2026-04-21 15:32 | 40.58320 | -10.91044 | 34738 ft | 403 kts | 222° |
| 2026-04-21 15:32 | 40.54082 | -10.95791 | 34740 ft | 403 kts | 222° |
| 2026-04-21 15:33 | 40.49806 | -11.00575 | 34742 ft | 403 kts | 223° |
| 2026-04-21 15:33 | 40.45535 | -11.05345 | 34741 ft | 403 kts | 222° |
| 2026-04-21 15:34 | 40.41299 | -11.10069 | 34746 ft | 403 kts | 223° |
| 2026-04-21 15:34 | 40.37007 | -11.14846 | 34759 ft | 402 kts | 223° |
| 2026-04-21 15:35 | 40.32762 | -11.19559 | 34767 ft | 402 kts | 223° |
| 2026-04-21 15:35 | 40.28525 | -11.24262 | 34769 ft | 400 kts | 224° |
| 2026-04-21 15:36 | 40.24261 | -11.28981 | 34758 ft | 402 kts | 223° |
| 2026-04-21 15:36 | 40.20027 | -11.33661 | 34754 ft | 398 kts | 224° |
| 2026-04-21 15:37 | 40.15800 | -11.38330 | 34755 ft | 400 kts | 224° |
| 2026-04-21 15:37 | 40.11546 | -11.43016 | 34755 ft | 397 kts | 224° |
| 2026-04-21 15:38 | 40.07346 | -11.47627 | 34756 ft | 397 kts | 225° |
| 2026-04-21 15:38 | 40.03115 | -11.52268 | 34756 ft | 398 kts | 225° |
| 2026-04-21 15:39 | 39.98887 | -11.56906 | 34755 ft | 397 kts | 225° |
| 2026-04-21 15:39 | 39.94688 | -11.61502 | 34758 ft | 396 kts | 226° |
| 2026-04-21 15:40 | 39.90476 | -11.66095 | 34767 ft | 397 kts | 225° |
| 2026-04-21 15:40 | 39.86211 | -11.70734 | 34762 ft | 398 kts | 225° |
| 2026-04-21 15:41 | 39.81988 | -11.75340 | 34762 ft | 398 kts | 226° |
| 2026-04-21 15:41 | 39.77758 | -11.79950 | 34763 ft | 397 kts | 226° |
| 2026-04-21 15:42 | 39.73523 | -11.84569 | 34763 ft | 400 kts | 226° |
| 2026-04-21 15:42 | 39.69273 | -11.89174 | 34764 ft | 398 kts | 226° |
| 2026-04-21 15:43 | 39.65010 | -11.93763 | 34764 ft | 399 kts | 226° |
| 2026-04-21 15:43 | 39.60761 | -11.98352 | 34778 ft | 401 kts | 226° |
| 2026-04-21 15:44 | 39.56464 | -12.02985 | 34781 ft | 399 kts | 226° |
| 2026-04-21 15:44 | 39.52202 | -12.07570 | 34778 ft | 401 kts | 227° |
| 2026-04-21 15:45 | 39.47932 | -12.12153 | 34782 ft | 400 kts | 226° |
| 2026-04-21 15:45 | 39.43622 | -12.16770 | 34793 ft | 404 kts | 226° |
| 2026-04-21 15:46 | 39.39035 | -12.21062 | 34794 ft | 412 kts | 218° |
| 2026-04-21 15:46 | 39.33939 | -12.24491 | 34793 ft | 416 kts | 215° |
| 2026-04-21 15:47 | 39.28772 | -12.27853 | 34795 ft | 418 kts | 215° |
| 2026-04-21 15:47 | 39.23579 | -12.31244 | 34789 ft | 416 kts | 215° |
| 2026-04-21 15:48 | 39.18424 | -12.34603 | 34791 ft | 418 kts | 215° |
| 2026-04-21 15:48 | 39.13242 | -12.37976 | 34796 ft | 419 kts | 215° |
| 2026-04-21 15:49 | 39.08032 | -12.41352 | 34798 ft | 417 kts | 215° |
| 2026-04-21 15:49 | 39.02819 | -12.44732 | 34803 ft | 422 kts | 214° |
| 2026-04-21 15:50 | 38.97584 | -12.48110 | 34803 ft | 423 kts | 214° |
| 2026-04-21 15:50 | 38.92349 | -12.51488 | 34806 ft | 423 kts | 215° |
| 2026-04-21 15:51 | 38.87071 | -12.54890 | 34805 ft | 423 kts | 214° |
| 2026-04-21 15:51 | 38.81848 | -12.58243 | 34805 ft | 422 kts | 215° |
| 2026-04-21 15:52 | 38.76598 | -12.61615 | 34809 ft | 425 kts | 215° |
| 2026-04-21 15:52 | 38.71320 | -12.65000 | 34811 ft | 424 kts | 215° |
| 2026-04-21 15:53 | 38.66034 | -12.68381 | 34810 ft | 425 kts | 214° |
| 2026-04-21 15:53 | 38.60762 | -12.71748 | 34817 ft | 424 kts | 214° |
| 2026-04-21 15:54 | 38.55499 | -12.75105 | 34814 ft | 426 kts | 214° |
| 2026-04-21 15:54 | 38.50195 | -12.78482 | 34827 ft | 427 kts | 214° |
| 2026-04-21 15:55 | 38.44877 | -12.81865 | 34817 ft | 427 kts | 214° |
| 2026-04-21 15:55 | 38.39549 | -12.85242 | 34828 ft | 427 kts | 214° |
| 2026-04-21 15:56 | 38.34246 | -12.88602 | 34822 ft | 426 kts | 214° |
| 2026-04-21 15:56 | 38.28941 | -12.91954 | 34833 ft | 426 kts | 214° |
| 2026-04-21 15:57 | 38.23623 | -12.95315 | 34831 ft | 428 kts | 214° |
| 2026-04-21 15:57 | 38.18282 | -12.98680 | 34835 ft | 427 kts | 214° |
| 2026-04-21 15:58 | 38.12991 | -13.02011 | 34841 ft | 428 kts | 214° |
| 2026-04-21 15:58 | 38.10315 | -13.03694 | 34968 ft | 429 kts | 214° |
| 2026-04-21 15:58 | 38.07653 | -13.05365 | 34759 ft | 429 kts | 214° |
| 2026-04-21 15:59 | 38.02321 | -13.08709 | 34832 ft | 428 kts | 214° |
| 2026-04-21 15:59 | 37.99625 | -13.10399 | 34934 ft | 430 kts | 214° |
| 2026-04-21 15:59 | 37.96948 | -13.12076 | 34831 ft | 429 kts | 214° |
| 2026-04-21 16:00 | 37.91642 | -13.15388 | 34827 ft | 426 kts | 214° |
| 2026-04-21 16:00 | 37.86323 | -13.18712 | 34830 ft | 428 kts | 214° |
| 2026-04-21 16:01 | 37.80965 | -13.22050 | 34830 ft | 429 kts | 214° |
| 2026-04-21 16:01 | 37.75604 | -13.25389 | 34830 ft | 432 kts | 214° |
| 2026-04-21 16:02 | 37.70255 | -13.28709 | 34836 ft | 430 kts | 214° |
| 2026-04-21 16:02 | 37.64924 | -13.32013 | 34834 ft | 428 kts | 214° |
| 2026-04-21 16:03 | 37.59559 | -13.35336 | 34835 ft | 429 kts | 214° |
| 2026-04-21 16:03 | 37.54176 | -13.38663 | 34840 ft | 430 kts | 214° |
| 2026-04-21 16:04 | 37.48801 | -13.41980 | 34837 ft | 431 kts | 214° |
| 2026-04-21 16:04 | 37.43439 | -13.45286 | 34838 ft | 433 kts | 214° |
| 2026-04-21 16:05 | 37.38046 | -13.48602 | 34843 ft | 432 kts | 214° |
| 2026-04-21 16:05 | 37.32671 | -13.51903 | 34842 ft | 431 kts | 214° |
| 2026-04-21 16:06 | 37.27272 | -13.55217 | 34841 ft | 434 kts | 214° |
| 2026-04-21 16:06 | 37.21844 | -13.58540 | 34843 ft | 433 kts | 214° |
| 2026-04-21 16:07 | 37.16442 | -13.61839 | 34851 ft | 433 kts | 214° |
| 2026-04-21 16:07 | 37.11038 | -13.65136 | 34853 ft | 434 kts | 213° |
| 2026-04-21 16:08 | 37.02885 | -13.70099 | 34855 ft | 432 kts | 213° |
| 2026-04-21 16:09 | 36.97520 | -13.73357 | 34858 ft | 431 kts | 213° |
| 2026-04-21 16:09 | 36.92094 | -13.76654 | 34860 ft | 434 kts | 213° |
| 2026-04-21 16:10 | 36.86692 | -13.79927 | 34859 ft | 434 kts | 214° |
| 2026-04-21 16:10 | 36.81270 | -13.83206 | 34869 ft | 435 kts | 214° |
| 2026-04-21 16:11 | 36.75798 | -13.86510 | 34868 ft | 434 kts | 214° |
| 2026-04-21 16:11 | 36.70398 | -13.89764 | 34879 ft | 434 kts | 213° |
| 2026-04-21 16:12 | 36.64972 | -13.93034 | 34875 ft | 437 kts | 213° |
| 2026-04-21 16:12 | 36.59500 | -13.96322 | 34876 ft | 436 kts | 213° |
| 2026-04-21 16:13 | 36.54056 | -13.99588 | 34874 ft | 436 kts | 213° |
| 2026-04-21 16:13 | 36.48561 | -14.02882 | 34875 ft | 439 kts | 213° |
| 2026-04-21 16:14 | 36.43077 | -14.06162 | 34876 ft | 438 kts | 213° |
| 2026-04-21 16:14 | 36.37580 | -14.09444 | 34877 ft | 439 kts | 213° |
| 2026-04-21 16:15 | 36.32100 | -14.12711 | 34881 ft | 437 kts | 213° |
| 2026-04-21 16:15 | 36.26584 | -14.15995 | 34879 ft | 439 kts | 213° |
| 2026-04-21 16:16 | 36.21101 | -14.19254 | 34880 ft | 438 kts | 213° |
| 2026-04-21 16:16 | 36.15603 | -14.22516 | 34882 ft | 439 kts | 213° |
| 2026-04-21 16:17 | 36.10118 | -14.25767 | 34885 ft | 439 kts | 213° |
| 2026-04-21 16:17 | 36.04573 | -14.29048 | 34884 ft | 441 kts | 213° |
| 2026-04-21 16:18 | 35.99072 | -14.32296 | 34883 ft | 439 kts | 213° |
| 2026-04-21 16:18 | 35.93562 | -14.35546 | 34886 ft | 441 kts | 213° |
| 2026-04-21 16:19 | 35.88042 | -14.38799 | 34886 ft | 440 kts | 213° |
| 2026-04-21 16:19 | 35.82524 | -14.42043 | 34886 ft | 440 kts | 213° |
| 2026-04-21 16:20 | 35.76996 | -14.45290 | 34890 ft | 442 kts | 213° |
| 2026-04-21 16:20 | 35.71472 | -14.48528 | 34888 ft | 442 kts | 213° |
| 2026-04-21 16:21 | 35.65915 | -14.51780 | 34891 ft | 444 kts | 213° |
| 2026-04-21 16:21 | 35.60260 | -14.54892 | 34891 ft | 446 kts | 210° |
| 2026-04-21 16:22 | 35.54460 | -14.57641 | 34893 ft | 448 kts | 208° |
| 2026-04-21 16:22 | 35.48651 | -14.60372 | 34894 ft | 448 kts | 209° |
| 2026-04-21 16:23 | 35.42853 | -14.63125 | 34898 ft | 447 kts | 209° |
| 2026-04-21 16:23 | 35.37052 | -14.65892 | 34901 ft | 449 kts | 208° |
| 2026-04-21 16:24 | 35.31224 | -14.68676 | 34903 ft | 451 kts | 208° |
| 2026-04-21 16:24 | 35.25393 | -14.71457 | 34904 ft | 448 kts | 208° |
| 2026-04-21 16:25 | 35.19585 | -14.74226 | 34905 ft | 450 kts | 208° |
| 2026-04-21 16:25 | 35.13773 | -14.76994 | 34902 ft | 449 kts | 208° |
| 2026-04-21 16:26 | 35.07927 | -14.79775 | 34904 ft | 452 kts | 208° |
| 2026-04-21 16:26 | 35.02098 | -14.82542 | 34904 ft | 451 kts | 208° |
| 2026-04-21 16:27 | 34.96238 | -14.85321 | 34905 ft | 452 kts | 208° |
| 2026-04-21 16:27 | 34.90388 | -14.88092 | 34907 ft | 452 kts | 208° |
| 2026-04-21 16:28 | 34.84514 | -14.90866 | 34907 ft | 451 kts | 208° |
| 2026-04-21 16:28 | 34.78657 | -14.93632 | 34909 ft | 453 kts | 208° |
| 2026-04-21 16:29 | 34.72793 | -14.96395 | 34910 ft | 453 kts | 208° |
| 2026-04-21 16:29 | 34.66918 | -14.99160 | 34912 ft | 454 kts | 208° |
| 2026-04-21 16:30 | 34.61028 | -15.01928 | 34918 ft | 454 kts | 208° |
| 2026-04-21 16:30 | 34.55142 | -15.04688 | 34924 ft | 455 kts | 208° |
| 2026-04-21 16:31 | 34.49266 | -15.07441 | 34925 ft | 454 kts | 207° |
| 2026-04-21 16:31 | 34.43346 | -15.10209 | 34925 ft | 454 kts | 207° |
| 2026-04-21 16:32 | 34.37462 | -15.12957 | 34925 ft | 455 kts | 208° |
| 2026-04-21 16:32 | 34.31544 | -15.15715 | 34926 ft | 454 kts | 208° |
| 2026-04-21 16:33 | 34.25664 | -15.18453 | 34925 ft | 456 kts | 208° |
| 2026-04-21 16:33 | 34.19760 | -15.21227 | 34925 ft | 455 kts | 209° |
| 2026-04-21 16:34 | 34.13993 | -15.24344 | 34926 ft | 452 kts | 211° |
| 2026-04-21 16:34 | 34.08300 | -15.27524 | 34926 ft | 453 kts | 211° |
| 2026-04-21 16:35 | 34.02586 | -15.30690 | 34925 ft | 454 kts | 211° |
| 2026-04-21 16:35 | 33.96847 | -15.33843 | 34924 ft | 454 kts | 211° |
| 2026-04-21 16:36 | 33.91076 | -15.37003 | 34925 ft | 455 kts | 211° |
| 2026-04-21 16:36 | 33.85313 | -15.40148 | 34926 ft | 455 kts | 211° |
| 2026-04-21 16:37 | 33.79568 | -15.43277 | 34925 ft | 456 kts | 211° |
| 2026-04-21 16:37 | 33.73761 | -15.46433 | 34924 ft | 454 kts | 211° |
| 2026-04-21 16:38 | 33.68001 | -15.49558 | 34924 ft | 456 kts | 211° |
| 2026-04-21 16:38 | 33.62226 | -15.52688 | 34922 ft | 455 kts | 211° |
| 2026-04-21 16:39 | 33.56481 | -15.55796 | 34927 ft | 456 kts | 211° |
| 2026-04-21 16:39 | 33.50684 | -15.58927 | 34928 ft | 456 kts | 211° |
| 2026-04-21 16:40 | 33.44893 | -15.62051 | 34929 ft | 457 kts | 211° |
| 2026-04-21 16:40 | 33.39105 | -15.65169 | 34933 ft | 457 kts | 210° |
| 2026-04-21 16:41 | 33.33290 | -15.68296 | 34937 ft | 458 kts | 210° |
| 2026-04-21 16:41 | 33.27502 | -15.71403 | 34937 ft | 459 kts | 210° |
| 2026-04-21 16:42 | 33.21689 | -15.74519 | 34939 ft | 456 kts | 210° |
| 2026-04-21 16:42 | 33.15877 | -15.77630 | 34938 ft | 457 kts | 210° |
| 2026-04-21 16:43 | 33.10089 | -15.80726 | 34940 ft | 459 kts | 210° |
| 2026-04-21 16:43 | 33.04263 | -15.83837 | 34943 ft | 458 kts | 210° |
| 2026-04-21 16:44 | 32.98432 | -15.86946 | 34948 ft | 459 kts | 210° |
| 2026-04-21 16:44 | 32.92611 | -15.90043 | 34948 ft | 458 kts | 210° |
| 2026-04-21 16:45 | 32.86779 | -15.93143 | 34943 ft | 459 kts | 210° |
| 2026-04-21 16:45 | 32.80946 | -15.96239 | 34948 ft | 460 kts | 210° |
| 2026-04-21 16:46 | 32.75113 | -15.99330 | 34945 ft | 460 kts | 210° |
| 2026-04-21 16:46 | 32.69265 | -16.02424 | 34946 ft | 460 kts | 210° |
| 2026-04-21 16:47 | 32.63424 | -16.05510 | 34946 ft | 460 kts | 210° |
| 2026-04-21 16:47 | 32.57559 | -16.08605 | 34947 ft | 460 kts | 210° |
| 2026-04-21 16:48 | 32.51732 | -16.11676 | 34947 ft | 460 kts | 210° |
| 2026-04-21 16:48 | 32.45897 | -16.14747 | 34947 ft | 460 kts | 210° |
| 2026-04-21 16:49 | 32.40042 | -16.17823 | 34946 ft | 459 kts | 210° |
| 2026-04-21 16:49 | 32.34219 | -16.20878 | 34946 ft | 460 kts | 210° |
| 2026-04-21 16:50 | 32.28371 | -16.23942 | 34946 ft | 460 kts | 210° |
| 2026-04-21 16:50 | 32.22506 | -16.27010 | 34946 ft | 460 kts | 210° |
| 2026-04-21 16:51 | 32.16582 | -16.29952 | 34945 ft | 464 kts | 205° |
| 2026-04-21 16:51 | 32.10392 | -16.32181 | 34946 ft | 466 kts | 201° |
| 2026-04-21 16:52 | 32.04136 | -16.34255 | 34947 ft | 468 kts | 201° |
| 2026-04-21 16:52 | 31.97896 | -16.36343 | 34946 ft | 467 kts | 201° |
| 2026-04-21 16:53 | 31.91652 | -16.38449 | 34945 ft | 468 kts | 202° |
| 2026-04-21 16:53 | 31.85395 | -16.40567 | 34944 ft | 467 kts | 201° |
| 2026-04-21 16:54 | 31.79169 | -16.42677 | 34945 ft | 467 kts | 201° |
| 2026-04-21 16:54 | 31.72937 | -16.44787 | 34948 ft | 466 kts | 202° |
| 2026-04-21 16:55 | 31.66682 | -16.46905 | 34946 ft | 467 kts | 201° |
| 2026-04-21 16:55 | 31.60451 | -16.49012 | 34948 ft | 468 kts | 201° |
| 2026-04-21 16:56 | 31.54183 | -16.51127 | 34951 ft | 467 kts | 201° |
| 2026-04-21 16:56 | 31.47947 | -16.53227 | 34954 ft | 467 kts | 201° |
| 2026-04-21 16:57 | 31.41591 | -16.55033 | 34957 ft | 473 kts | 193° |
| 2026-04-21 16:57 | 31.34968 | -16.55167 | 34962 ft | 481 kts | 180° |
| 2026-04-21 16:58 | 31.28269 | -16.54502 | 34965 ft | 482 kts | 179° |
| 2026-04-21 16:58 | 31.21566 | -16.53768 | 34962 ft | 483 kts | 179° |
| 2026-04-21 16:59 | 31.14919 | -16.53062 | 34964 ft | 483 kts | 179° |
| 2026-04-21 16:59 | 31.08222 | -16.52362 | 34964 ft | 483 kts | 179° |
| 2026-04-21 17:00 | 31.01500 | -16.51668 | 34966 ft | 483 kts | 179° |
| 2026-04-21 17:00 | 30.95941 | -16.51097 | 34964 ft | 484 kts | 179° |
| 2026-04-21 17:01 | 30.88091 | -16.50292 | 34965 ft | 483 kts | 179° |
| 2026-04-21 17:01 | 30.81405 | -16.49608 | 34966 ft | 483 kts | 179° |
| 2026-04-21 17:02 | 30.74646 | -16.48918 | 34964 ft | 483 kts | 179° |
| 2026-04-21 17:02 | 30.67990 | -16.48240 | 34966 ft | 482 kts | 179° |
| 2026-04-21 17:03 | 30.61282 | -16.47559 | 34964 ft | 483 kts | 179° |
| 2026-04-21 17:03 | 30.54581 | -16.46879 | 34960 ft | 483 kts | 179° |
| 2026-04-21 17:04 | 30.47898 | -16.46202 | 34961 ft | 484 kts | 179° |
| 2026-04-21 17:04 | 30.41213 | -16.45527 | 34962 ft | 483 kts | 179° |
| 2026-04-21 17:05 | 30.34513 | -16.45619 | 34957 ft | 476 kts | 194° |
| 2026-04-21 17:05 | 30.28167 | -16.47531 | 34967 ft | 470 kts | 203° |
| 2026-04-21 17:06 | 30.21985 | -16.49925 | 34963 ft | 469 kts | 204° |
| 2026-04-21 17:06 | 30.15825 | -16.52329 | 34960 ft | 469 kts | 203° |
| 2026-04-21 17:07 | 30.09599 | -16.54736 | 34963 ft | 469 kts | 203° |
| 2026-04-21 17:07 | 30.03415 | -16.57112 | 34964 ft | 469 kts | 203° |
| 2026-04-21 17:08 | 29.97232 | -16.59481 | 34962 ft | 469 kts | 203° |
| 2026-04-21 17:08 | 29.91025 | -16.61853 | 34960 ft | 470 kts | 203° |
| 2026-04-21 17:09 | 29.81706 | -16.65405 | 34958 ft | 470 kts | 202° |
| 2026-04-21 17:09 | 29.75512 | -16.67762 | 34961 ft | 471 kts | 202° |
| 2026-04-21 17:10 | 29.69275 | -16.70132 | 34958 ft | 469 kts | 202° |
| 2026-04-21 17:10 | 29.63084 | -16.72480 | 34960 ft | 468 kts | 202° |
| 2026-04-21 17:11 | 29.56859 | -16.74842 | 34961 ft | 470 kts | 203° |
| 2026-04-21 17:11 | 29.50605 | -16.77211 | 34960 ft | 470 kts | 202° |
| 2026-04-21 17:12 | 29.44403 | -16.79555 | 34962 ft | 469 kts | 202° |
| 2026-04-21 17:12 | 29.38222 | -16.81889 | 34962 ft | 468 kts | 203° |
| 2026-04-21 17:13 | 29.32028 | -16.84223 | 34962 ft | 468 kts | 203° |
| 2026-04-21 17:13 | 29.25864 | -16.86544 | 34964 ft | 469 kts | 203° |
| 2026-04-21 17:14 | 29.19673 | -16.88871 | 34963 ft | 468 kts | 203° |
| 2026-04-21 17:14 | 29.13465 | -16.91204 | 34963 ft | 468 kts | 203° |
| 2026-04-21 17:15 | 29.07281 | -16.93522 | 34967 ft | 467 kts | 202° |
| 2026-04-21 17:15 | 29.01111 | -16.95833 | 34965 ft | 467 kts | 203° |
| 2026-04-21 17:16 | 28.94895 | -16.98160 | 34963 ft | 467 kts | 203° |
| 2026-04-21 17:16 | 28.88706 | -17.00473 | 34961 ft | 468 kts | 203° |
| 2026-04-21 17:17 | 28.82528 | -17.02781 | 34947 ft | 467 kts | 203° |
| 2026-04-21 17:17 | 28.76354 | -17.05083 | 34947 ft | 468 kts | 203° |
| 2026-04-21 17:18 | 28.70147 | -17.07394 | 34944 ft | 467 kts | 203° |
| 2026-04-21 17:18 | 28.64026 | -17.09668 | 34947 ft | 466 kts | 203° |
| 2026-04-21 17:19 | 28.57844 | -17.11965 | 34952 ft | 467 kts | 203° |
| 2026-04-21 17:19 | 28.51640 | -17.14264 | 34955 ft | 468 kts | 203° |
| 2026-04-21 17:20 | 28.45468 | -17.16552 | 34958 ft | 467 kts | 203° |
| 2026-04-21 17:20 | 28.39303 | -17.18832 | 34957 ft | 467 kts | 203° |
| 2026-04-21 17:21 | 28.33145 | -17.21109 | 34950 ft | 466 kts | 203° |
| 2026-04-21 17:21 | 28.26974 | -17.23387 | 34946 ft | 466 kts | 204° |
| 2026-04-21 17:22 | 28.20776 | -17.25671 | 34948 ft | 467 kts | 203° |
| 2026-04-21 17:22 | 28.14597 | -17.27945 | 34945 ft | 467 kts | 204° |
| 2026-04-21 17:23 | 28.08430 | -17.30212 | 34948 ft | 468 kts | 204° |
| 2026-04-21 17:23 | 28.02147 | -17.32234 | 34950 ft | 471 kts | 195° |
| 2026-04-21 17:24 | 27.98881 | -17.32558 | 34947 ft | 480 kts | 182° |
| 2026-04-21 17:24 | 27.95547 | -17.32071 | 34960 ft | 487 kts | 173° |
| 2026-04-21 17:24 | 27.88884 | -17.30396 | 34956 ft | 491 kts | 171° |
| 2026-04-21 17:25 | 27.82259 | -17.28611 | 34951 ft | 490 kts | 171° |
| 2026-04-21 17:25 | 27.75615 | -17.26830 | 34950 ft | 491 kts | 171° |
| 2026-04-21 17:26 | 27.68933 | -17.25047 | 34951 ft | 491 kts | 171° |
| 2026-04-21 17:26 | 27.62294 | -17.23276 | 34951 ft | 491 kts | 171° |
| 2026-04-21 17:27 | 27.55660 | -17.21510 | 34953 ft | 491 kts | 172° |
| 2026-04-21 17:27 | 27.49007 | -17.19741 | 34945 ft | 493 kts | 171° |
| 2026-04-21 17:28 | 27.42325 | -17.17967 | 34951 ft | 492 kts | 172° |
| 2026-04-21 17:28 | 27.35670 | -17.16202 | 34953 ft | 491 kts | 172° |
| 2026-04-21 17:29 | 27.28979 | -17.14433 | 34944 ft | 494 kts | 172° |
| 2026-04-21 17:29 | 27.22321 | -17.12668 | 34946 ft | 493 kts | 172° |
| 2026-04-21 17:30 | 27.15601 | -17.10892 | 34949 ft | 495 kts | 172° |
| 2026-04-21 17:30 | 27.08915 | -17.09130 | 34944 ft | 494 kts | 172° |
| 2026-04-21 17:31 | 27.02190 | -17.07357 | 34943 ft | 493 kts | 172° |
| 2026-04-21 17:31 | 26.95517 | -17.05601 | 34945 ft | 496 kts | 172° |
| 2026-04-21 17:32 | 26.88797 | -17.03827 | 34943 ft | 496 kts | 171° |
| 2026-04-21 17:32 | 26.82186 | -17.01571 | 34937 ft | 501 kts | 166° |
| 2026-04-21 17:33 | 26.75562 | -16.99038 | 34941 ft | 503 kts | 167° |
| 2026-04-21 17:33 | 26.68985 | -16.96572 | 34945 ft | 501 kts | 167° |
| 2026-04-21 17:34 | 26.62310 | -16.94117 | 34942 ft | 503 kts | 167° |
| 2026-04-21 17:34 | 26.55695 | -16.91696 | 34945 ft | 500 kts | 168° |
| 2026-04-21 17:35 | 26.49027 | -16.89272 | 34947 ft | 503 kts | 168° |
| 2026-04-21 17:35 | 26.42392 | -16.86855 | 34939 ft | 500 kts | 168° |
| 2026-04-21 17:36 | 26.35763 | -16.84454 | 34941 ft | 505 kts | 167° |
| 2026-04-21 17:36 | 26.29104 | -16.82042 | 34944 ft | 502 kts | 168° |
| 2026-04-21 17:37 | 26.22452 | -16.79633 | 34933 ft | 502 kts | 168° |
| 2026-04-21 17:37 | 26.15764 | -16.77215 | 34938 ft | 504 kts | 168° |
| 2026-04-21 17:38 | 26.09109 | -16.74815 | 34937 ft | 504 kts | 168° |
| 2026-04-21 17:38 | 26.02432 | -16.72414 | 34933 ft | 505 kts | 169° |
| 2026-04-21 17:39 | 25.95772 | -16.70021 | 34933 ft | 506 kts | 169° |
| 2026-04-21 17:39 | 25.89040 | -16.67607 | 34925 ft | 504 kts | 169° |
| 2026-04-21 17:40 | 25.82363 | -16.65215 | 34951 ft | 509 kts | 169° |
| 2026-04-21 17:40 | 25.75583 | -16.62788 | 34935 ft | 509 kts | 169° |
| 2026-04-21 17:41 | 25.68867 | -16.60378 | 34915 ft | 508 kts | 170° |
| 2026-04-21 17:41 | 25.62104 | -16.57970 | 34930 ft | 512 kts | 169° |
| 2026-04-21 17:42 | 25.55331 | -16.55551 | 34925 ft | 510 kts | 170° |
| 2026-04-21 17:42 | 25.48571 | -16.53148 | 34925 ft | 514 kts | 169° |
| 2026-04-21 17:43 | 25.41765 | -16.50727 | 34924 ft | 514 kts | 170° |
| 2026-04-21 17:43 | 25.34996 | -16.48317 | 34918 ft | 508 kts | 171° |
| 2026-04-21 17:44 | 25.28248 | -16.45920 | 34923 ft | 514 kts | 171° |
| 2026-04-21 17:44 | 25.21415 | -16.43496 | 34914 ft | 515 kts | 171° |
| 2026-04-21 17:45 | 25.14588 | -16.41076 | 34921 ft | 518 kts | 171° |
| 2026-04-21 17:45 | 25.07694 | -16.38637 | 34917 ft | 517 kts | 171° |
| 2026-04-21 17:46 | 25.04275 | -16.37458 | 35085 ft | 519 kts | 172° |
| 2026-04-21 17:46 | 25.00804 | -16.36404 | 35319 ft | 515 kts | 177° |
| 2026-04-21 17:46 | 24.97303 | -16.35688 | 35769 ft | 505 kts | 183° |
| 2026-04-21 17:46 | 24.93848 | -16.35220 | 36330 ft | 495 kts | 186° |
| 2026-04-21 17:47 | 24.90411 | -16.34849 | 36697 ft | 492 kts | 188° |
| 2026-04-21 17:47 | 24.87037 | -16.34515 | 36902 ft | 493 kts | 188° |
| 2026-04-21 17:47 | 24.80104 | -16.33838 | 36919 ft | 498 kts | 187° |
| 2026-04-21 17:48 | 24.73207 | -16.33135 | 36920 ft | 497 kts | 188° |
| 2026-04-21 17:48 | 24.66314 | -16.32436 | 36921 ft | 500 kts | 188° |
| 2026-04-21 17:49 | 24.59376 | -16.31724 | 36922 ft | 498 kts | 188° |
| 2026-04-21 17:49 | 24.52534 | -16.31298 | 36920 ft | 477 kts | 197° |
| 2026-04-21 17:50 | 24.49297 | -16.31698 | 36920 ft | 457 kts | 208° |
| 2026-04-21 17:50 | 24.46276 | -16.32583 | 36935 ft | 448 kts | 213° |
| 2026-04-21 17:50 | 24.40368 | -16.34776 | 36929 ft | 445 kts | 215° |
| 2026-04-21 17:51 | 24.34545 | -16.37009 | 36938 ft | 443 kts | 215° |
| 2026-04-21 17:51 | 24.28722 | -16.39238 | 36947 ft | 443 kts | 215° |
| 2026-04-21 17:52 | 24.22934 | -16.41443 | 36937 ft | 440 kts | 215° |
| 2026-04-21 17:52 | 24.17172 | -16.43630 | 36941 ft | 437 kts | 216° |
| 2026-04-21 17:53 | 24.11383 | -16.45847 | 36943 ft | 443 kts | 216° |
| 2026-04-21 17:53 | 24.05595 | -16.48042 | 36944 ft | 437 kts | 215° |
| 2026-04-21 17:54 | 23.99821 | -16.50251 | 36948 ft | 441 kts | 216° |
| 2026-04-21 17:54 | 23.94028 | -16.52455 | 36944 ft | 442 kts | 215° |
| 2026-04-21 17:55 | 23.88223 | -16.54633 | 36944 ft | 437 kts | 216° |
| 2026-04-21 17:55 | 23.82444 | -16.56835 | 36946 ft | 443 kts | 216° |
| 2026-04-21 17:56 | 23.76643 | -16.59031 | 36943 ft | 440 kts | 216° |
| 2026-04-21 17:56 | 23.70844 | -16.61223 | 36944 ft | 442 kts | 215° |
| 2026-04-21 17:57 | 23.65019 | -16.63422 | 36936 ft | 439 kts | 216° |
| 2026-04-21 17:57 | 23.59218 | -16.65610 | 36937 ft | 441 kts | 214° |
| 2026-04-21 17:58 | 23.53395 | -16.67809 | 36934 ft | 442 kts | 214° |
| 2026-04-21 17:58 | 23.47615 | -16.69977 | 36932 ft | 439 kts | 215° |
| 2026-04-21 17:59 | 23.41799 | -16.72176 | 36934 ft | 443 kts | 215° |
| 2026-04-21 17:59 | 23.36023 | -16.74336 | 36932 ft | 437 kts | 214° |
| 2026-04-21 18:00 | 23.30225 | -16.76521 | 36929 ft | 439 kts | 215° |
| 2026-04-21 18:00 | 23.24470 | -16.78674 | 36929 ft | 439 kts | 215° |
| 2026-04-21 18:01 | 23.18661 | -16.80868 | 36927 ft | 444 kts | 214° |
| 2026-04-21 18:01 | 23.12816 | -16.83047 | 36926 ft | 439 kts | 214° |
| 2026-04-21 18:02 | 23.07061 | -16.85203 | 36921 ft | 440 kts | 215° |
| 2026-04-21 18:02 | 23.01238 | -16.87388 | 36923 ft | 439 kts | 214° |
| 2026-04-21 18:03 | 22.95473 | -16.89533 | 36935 ft | 437 kts | 214° |
| 2026-04-21 18:03 | 22.89731 | -16.91678 | 36943 ft | 439 kts | 214° |
| 2026-04-21 18:04 | 22.83913 | -16.93854 | 36941 ft | 439 kts | 214° |
| 2026-04-21 18:04 | 22.78131 | -16.96005 | 36940 ft | 441 kts | 214° |
| 2026-04-21 18:05 | 22.72352 | -16.98153 | 36939 ft | 438 kts | 214° |
| 2026-04-21 18:05 | 22.66583 | -17.00296 | 36940 ft | 438 kts | 214° |
| 2026-04-21 18:06 | 22.60768 | -17.02464 | 36942 ft | 442 kts | 213° |
| 2026-04-21 18:06 | 22.54938 | -17.04630 | 36932 ft | 441 kts | 213° |
| 2026-04-21 18:07 | 22.49132 | -17.06778 | 36931 ft | 442 kts | 213° |
| 2026-04-21 18:07 | 22.43276 | -17.08957 | 36929 ft | 447 kts | 213° |
| 2026-04-21 18:08 | 22.37452 | -17.11104 | 36926 ft | 441 kts | 213° |
| 2026-04-21 18:08 | 22.31607 | -17.13270 | 36930 ft | 446 kts | 213° |
| 2026-04-21 18:09 | 22.25737 | -17.15437 | 36931 ft | 443 kts | 213° |
| 2026-04-21 18:09 | 22.19885 | -17.17595 | 36932 ft | 443 kts | 213° |
| 2026-04-21 18:10 | 22.14062 | -17.19747 | 36932 ft | 447 kts | 213° |
| 2026-04-21 18:10 | 22.08162 | -17.21923 | 36931 ft | 445 kts | 213° |
| 2026-04-21 18:11 | 22.02307 | -17.24080 | 36929 ft | 448 kts | 212° |
| 2026-04-21 18:11 | 21.96368 | -17.26266 | 36926 ft | 445 kts | 212° |
| 2026-04-21 18:12 | 21.90550 | -17.28396 | 36930 ft | 444 kts | 212° |
| 2026-04-21 18:12 | 21.84701 | -17.30549 | 36931 ft | 445 kts | 212° |
| 2026-04-21 18:13 | 21.78803 | -17.32718 | 36925 ft | 447 kts | 212° |
| 2026-04-21 18:13 | 21.72924 | -17.34869 | 36928 ft | 444 kts | 212° |
| 2026-04-21 18:14 | 21.64118 | -17.38099 | 36924 ft | 448 kts | 212° |
| 2026-04-21 18:15 | 21.58196 | -17.40263 | 36916 ft | 446 kts | 212° |
| 2026-04-21 18:15 | 21.52345 | -17.42403 | 36921 ft | 448 kts | 212° |
| 2026-04-21 18:16 | 21.46409 | -17.44574 | 36913 ft | 447 kts | 212° |
| 2026-04-21 18:16 | 21.40514 | -17.46719 | 36910 ft | 447 kts | 212° |
| 2026-04-21 18:17 | 21.34640 | -17.48864 | 36905 ft | 447 kts | 211° |
| 2026-04-21 18:17 | 21.28716 | -17.51020 | 36901 ft | 446 kts | 211° |
| 2026-04-21 18:18 | 21.22861 | -17.53152 | 36901 ft | 447 kts | 211° |
| 2026-04-21 18:18 | 21.16944 | -17.55306 | 36899 ft | 449 kts | 211° |
| 2026-04-21 18:19 | 21.11047 | -17.57451 | 36901 ft | 448 kts | 211° |
| 2026-04-21 18:19 | 21.05121 | -17.59596 | 36906 ft | 446 kts | 211° |
| 2026-04-21 18:20 | 20.99254 | -17.61731 | 36909 ft | 448 kts | 211° |
| 2026-04-21 18:20 | 20.93350 | -17.63868 | 36907 ft | 444 kts | 211° |
| 2026-04-21 18:21 | 20.87476 | -17.65999 | 36909 ft | 449 kts | 210° |
| 2026-04-21 18:21 | 20.81532 | -17.68151 | 36906 ft | 447 kts | 210° |
| 2026-04-21 18:22 | 20.75641 | -17.70278 | 36911 ft | 447 kts | 210° |
| 2026-04-21 18:22 | 20.69728 | -17.72413 | 36911 ft | 446 kts | 210° |
| 2026-04-21 18:23 | 20.63873 | -17.74526 | 36905 ft | 445 kts | 210° |
| 2026-04-21 18:23 | 20.57970 | -17.76656 | 36905 ft | 445 kts | 210° |
| 2026-04-21 18:24 | 20.52123 | -17.78764 | 36908 ft | 446 kts | 210° |
| 2026-04-21 18:24 | 20.46239 | -17.80882 | 36907 ft | 446 kts | 210° |
| 2026-04-21 18:25 | 20.40295 | -17.83024 | 36907 ft | 446 kts | 209° |
| 2026-04-21 18:25 | 20.34437 | -17.85121 | 36910 ft | 444 kts | 209° |
| 2026-04-21 18:26 | 20.28562 | -17.87238 | 36907 ft | 446 kts | 209° |
| 2026-04-21 18:26 | 20.22725 | -17.89329 | 36907 ft | 444 kts | 209° |
| 2026-04-21 18:27 | 20.16835 | -17.91445 | 36908 ft | 446 kts | 209° |
| 2026-04-21 18:27 | 20.10985 | -17.93537 | 36909 ft | 443 kts | 209° |
| 2026-04-21 18:28 | 20.05102 | -17.95648 | 36905 ft | 445 kts | 209° |
| 2026-04-21 18:28 | 19.99287 | -17.97727 | 36906 ft | 443 kts | 209° |
| 2026-04-21 18:29 | 19.93290 | -17.99539 | 36900 ft | 454 kts | 200° |
| 2026-04-21 18:29 | 19.86842 | -18.00049 | 36906 ft | 467 kts | 191° |
| 2026-04-21 18:30 | 19.80335 | -18.00054 | 36900 ft | 470 kts | 190° |
| 2026-04-21 18:30 | 19.73775 | -18.00023 | 36904 ft | 467 kts | 189° |
| 2026-04-21 18:31 | 19.67281 | -18.00008 | 36903 ft | 469 kts | 189° |
| 2026-04-21 18:31 | 19.60721 | -18.00007 | 36904 ft | 469 kts | 189° |
| 2026-04-21 18:32 | 19.54191 | -18.00001 | 36903 ft | 467 kts | 190° |
| 2026-04-21 18:32 | 19.47685 | -17.99999 | 36904 ft | 467 kts | 190° |
| 2026-04-21 18:33 | 19.41157 | -18.00001 | 36901 ft | 470 kts | 190° |
| 2026-04-21 18:33 | 19.34620 | -17.99998 | 36908 ft | 466 kts | 190° |
| 2026-04-21 18:34 | 19.28084 | -18.00002 | 36905 ft | 468 kts | 190° |
| 2026-04-21 18:34 | 19.21599 | -17.99998 | 36910 ft | 464 kts | 190° |
| 2026-04-21 18:35 | 19.16155 | -17.99998 | 36903 ft | 467 kts | 189° |
| 2026-04-21 18:35 | 19.08582 | -18.00003 | 36903 ft | 469 kts | 190° |
| 2026-04-21 18:36 | 19.02064 | -17.99999 | 36902 ft | 464 kts | 189° |
| 2026-04-21 18:36 | 18.95584 | -17.99999 | 36904 ft | 466 kts | 189° |
| 2026-04-21 18:37 | 18.89118 | -18.00001 | 36902 ft | 463 kts | 190° |
| 2026-04-21 18:37 | 18.82626 | -18.00000 | 36902 ft | 465 kts | 189° |
| 2026-04-21 18:38 | 18.76167 | -17.99998 | 36900 ft | 462 kts | 189° |
| 2026-04-21 18:38 | 18.69700 | -17.99999 | 36905 ft | 462 kts | 189° |
| 2026-04-21 18:39 | 18.63260 | -17.99998 | 36909 ft | 461 kts | 189° |
| 2026-04-21 18:39 | 18.56834 | -17.99999 | 36896 ft | 463 kts | 189° |
| 2026-04-21 18:40 | 18.50377 | -17.99998 | 36893 ft | 461 kts | 189° |
| 2026-04-21 18:40 | 18.45042 | -17.99996 | 36897 ft | 461 kts | 188° |
| 2026-04-21 18:41 | 18.37482 | -17.99139 | 36893 ft | 480 kts | 174° |
| 2026-04-21 18:41 | 18.31073 | -17.96841 | 36892 ft | 486 kts | 167° |
| 2026-04-21 18:42 | 18.24746 | -17.94217 | 36895 ft | 488 kts | 167° |
| 2026-04-21 18:42 | 18.18457 | -17.91612 | 36902 ft | 488 kts | 167° |
| 2026-04-21 18:43 | 18.12122 | -17.89014 | 36901 ft | 487 kts | 167° |
| 2026-04-21 18:43 | 18.05799 | -17.86434 | 36898 ft | 487 kts | 167° |
| 2026-04-21 18:44 | 17.99503 | -17.83867 | 36900 ft | 483 kts | 167° |
| 2026-04-21 18:44 | 17.93196 | -17.81304 | 36903 ft | 485 kts | 167° |
| 2026-04-21 18:45 | 17.86874 | -17.78736 | 36897 ft | 484 kts | 167° |
| 2026-04-21 18:45 | 17.80590 | -17.76183 | 36897 ft | 482 kts | 167° |
| 2026-04-21 18:46 | 17.74342 | -17.73651 | 36897 ft | 486 kts | 167° |
| 2026-04-21 18:46 | 17.67998 | -17.71083 | 36895 ft | 484 kts | 167° |
| 2026-04-21 18:47 | 17.61710 | -17.68532 | 36895 ft | 483 kts | 166° |
| 2026-04-21 18:47 | 17.55474 | -17.66009 | 36896 ft | 482 kts | 167° |
| 2026-04-21 18:48 | 17.49185 | -17.63467 | 36896 ft | 481 kts | 166° |
| 2026-04-21 18:48 | 17.42947 | -17.60946 | 36895 ft | 481 kts | 166° |
| 2026-04-21 18:49 | 17.36701 | -17.58426 | 36894 ft | 482 kts | 166° |
| 2026-04-21 18:49 | 17.31449 | -17.56306 | 36893 ft | 481 kts | 166° |
| 2026-04-21 18:50 | 17.24198 | -17.53382 | 36899 ft | 478 kts | 166° |
| 2026-04-21 18:50 | 17.17958 | -17.50872 | 36895 ft | 480 kts | 166° |
| 2026-04-21 18:51 | 17.11745 | -17.48370 | 36895 ft | 480 kts | 166° |
| 2026-04-21 18:51 | 17.05491 | -17.45857 | 36893 ft | 480 kts | 166° |
| 2026-04-21 18:52 | 16.99295 | -17.43364 | 36886 ft | 478 kts | 166° |
| 2026-04-21 18:52 | 16.93088 | -17.40871 | 36882 ft | 478 kts | 166° |
| 2026-04-21 18:53 | 16.86861 | -17.38374 | 36878 ft | 479 kts | 166° |
| 2026-04-21 18:53 | 16.80604 | -17.35865 | 36875 ft | 476 kts | 167° |
| 2026-04-21 18:54 | 16.74336 | -17.33985 | 36868 ft | 461 kts | 181° |
| 2026-04-21 18:54 | 16.68034 | -17.33968 | 36873 ft | 450 kts | 191° |
| 2026-04-21 18:55 | 16.62794 | -17.34336 | 36872 ft | 449 kts | 192° |
| 2026-04-21 18:55 | 16.55538 | -17.34864 | 36876 ft | 448 kts | 192° |
| 2026-04-21 18:56 | 16.49320 | -17.35311 | 36874 ft | 449 kts | 191° |
| 2026-04-21 18:56 | 16.43070 | -17.35751 | 36874 ft | 446 kts | 191° |
| 2026-04-21 18:57 | 16.36837 | -17.36190 | 36871 ft | 449 kts | 192° |
| 2026-04-21 18:57 | 16.30642 | -17.36625 | 36870 ft | 448 kts | 191° |
| 2026-04-21 18:58 | 16.24428 | -17.37059 | 36873 ft | 446 kts | 191° |
| 2026-04-21 18:58 | 16.18192 | -17.37499 | 36871 ft | 447 kts | 191° |
| 2026-04-21 18:59 | 16.11973 | -17.37935 | 36871 ft | 447 kts | 191° |
| 2026-04-21 18:59 | 16.05776 | -17.38367 | 36871 ft | 446 kts | 191° |
| 2026-04-21 19:00 | 15.99577 | -17.38798 | 36870 ft | 445 kts | 191° |
| 2026-04-21 19:00 | 15.93378 | -17.39230 | 36871 ft | 447 kts | 191° |
| 2026-04-21 19:01 | 15.87147 | -17.39664 | 36872 ft | 444 kts | 191° |
| 2026-04-21 19:01 | 15.80991 | -17.40091 | 36880 ft | 444 kts | 191° |
| 2026-04-21 19:02 | 15.74785 | -17.40526 | 36879 ft | 446 kts | 191° |
| 2026-04-21 19:02 | 15.68567 | -17.40959 | 36879 ft | 446 kts | 191° |
| 2026-04-21 19:03 | 15.62383 | -17.41389 | 36882 ft | 445 kts | 191° |
| 2026-04-21 19:03 | 15.56195 | -17.41817 | 36882 ft | 445 kts | 191° |
| 2026-04-21 19:04 | 15.50004 | -17.42247 | 36882 ft | 443 kts | 191° |
| 2026-04-21 19:04 | 15.43826 | -17.42676 | 36880 ft | 445 kts | 190° |
| 2026-04-21 19:05 | 15.37639 | -17.43104 | 36879 ft | 443 kts | 191° |
| 2026-04-21 19:05 | 15.31434 | -17.43535 | 36883 ft | 444 kts | 191° |
| 2026-04-21 19:06 | 15.25281 | -17.43962 | 36884 ft | 444 kts | 190° |
| 2026-04-21 19:06 | 15.19078 | -17.44393 | 36882 ft | 444 kts | 190° |
| 2026-04-21 19:07 | 15.12919 | -17.44818 | 36878 ft | 443 kts | 190° |
| 2026-04-21 19:07 | 15.06738 | -17.45245 | 36873 ft | 444 kts | 190° |
| 2026-04-21 19:08 | 15.00558 | -17.45674 | 36873 ft | 443 kts | 189° |
| 2026-04-21 19:08 | 14.94381 | -17.46101 | 36869 ft | 445 kts | 189° |
| 2026-04-21 19:09 | 14.88201 | -17.46526 | 36866 ft | 442 kts | 189° |
| 2026-04-21 19:09 | 14.82042 | -17.46951 | 36867 ft | 442 kts | 190° |
| 2026-04-21 19:10 | 14.75802 | -17.46883 | 36869 ft | 455 kts | 176° |
| 2026-04-21 19:10 | 14.72710 | -17.46052 | 36871 ft | 462 kts | 164° |
| 2026-04-21 19:10 | 14.69763 | -17.44668 | 36874 ft | 466 kts | 158° |
| 2026-04-21 19:11 | 14.64074 | -17.41436 | 36867 ft | 472 kts | 156° |
| 2026-04-21 19:11 | 14.58363 | -17.38076 | 36863 ft | 467 kts | 155° |
| 2026-04-21 19:12 | 14.52703 | -17.34758 | 36862 ft | 468 kts | 155° |
| 2026-04-21 19:12 | 14.47055 | -17.31455 | 36774 ft | 472 kts | 155° |
| 2026-04-21 19:12 | 14.44154 | -17.29763 | 36245 ft | 482 kts | 155° |
| 2026-04-21 19:13 | 14.41203 | -17.28041 | 35503 ft | 483 kts | 155° |
| 2026-04-21 19:13 | 14.38308 | -17.26347 | 34779 ft | 480 kts | 155° |
| 2026-04-21 19:13 | 14.35398 | -17.24643 | 34052 ft | 477 kts | 155° |
| 2026-04-21 19:13 | 14.32536 | -17.22967 | 33319 ft | 470 kts | 156° |
| 2026-04-21 19:14 | 14.29731 | -17.21324 | 32612 ft | 462 kts | 156° |
| 2026-04-21 19:14 | 14.26953 | -17.19697 | 31958 ft | 455 kts | 156° |
| 2026-04-21 19:14 | 14.24207 | -17.18093 | 31310 ft | 452 kts | 155° |
| 2026-04-21 19:14 | 14.21448 | -17.16485 | 30661 ft | 454 kts | 155° |
| 2026-04-21 19:15 | 14.18699 | -17.14886 | 30017 ft | 456 kts | 155° |
| 2026-04-21 19:15 | 14.15950 | -17.13284 | 29378 ft | 457 kts | 154° |
| 2026-04-21 19:15 | 14.13194 | -17.11677 | 28736 ft | 456 kts | 154° |
| 2026-04-21 19:15 | 14.10424 | -17.10064 | 28109 ft | 452 kts | 154° |
| 2026-04-21 19:16 | 14.07726 | -17.08490 | 27502 ft | 447 kts | 154° |
| 2026-04-21 19:16 | 14.05021 | -17.06913 | 26890 ft | 442 kts | 154° |
| 2026-04-21 19:16 | 14.02384 | -17.05375 | 26286 ft | 437 kts | 154° |
| 2026-04-21 19:16 | 13.99752 | -17.03842 | 25677 ft | 431 kts | 154° |
| 2026-04-21 19:17 | 13.94585 | -17.00834 | 24467 ft | 424 kts | 153° |
| 2026-04-21 19:17 | 13.92031 | -16.99348 | 23862 ft | 419 kts | 153° |
| 2026-04-21 19:17 | 13.89482 | -16.97864 | 23262 ft | 413 kts | 153° |
| 2026-04-21 19:18 | 13.87022 | -16.96433 | 22694 ft | 409 kts | 152° |
| 2026-04-21 19:18 | 13.84555 | -16.94999 | 22132 ft | 405 kts | 152° |
| 2026-04-21 19:18 | 13.82109 | -16.93578 | 21593 ft | 400 kts | 152° |
| 2026-04-21 19:18 | 13.79720 | -16.92189 | 21053 ft | 394 kts | 152° |
| 2026-04-21 19:19 | 13.77343 | -16.90809 | 20505 ft | 388 kts | 152° |
| 2026-04-21 19:19 | 13.75008 | -16.89452 | 19932 ft | 383 kts | 153° |
| 2026-04-21 19:19 | 13.72697 | -16.88111 | 19381 ft | 377 kts | 153° |
| 2026-04-21 19:19 | 13.70434 | -16.86797 | 18818 ft | 371 kts | 153° |
| 2026-04-21 19:20 | 13.68231 | -16.85516 | 18255 ft | 365 kts | 153° |
| 2026-04-21 19:20 | 13.66021 | -16.84232 | 17682 ft | 360 kts | 153° |
| 2026-04-21 19:20 | 13.63860 | -16.82974 | 17100 ft | 354 kts | 153° |
| 2026-04-21 19:20 | 13.61735 | -16.81738 | 16504 ft | 349 kts | 153° |
| 2026-04-21 19:21 | 13.59648 | -16.80529 | 15914 ft | 344 kts | 153° |
| 2026-04-21 19:21 | 13.57562 | -16.79321 | 15292 ft | 340 kts | 153° |
| 2026-04-21 19:21 | 13.55524 | -16.78138 | 14682 ft | 336 kts | 153° |
| 2026-04-21 19:21 | 13.53487 | -16.76957 | 14125 ft | 332 kts | 152° |
| 2026-04-21 19:22 | 13.51481 | -16.75796 | 13501 ft | 328 kts | 152° |
| 2026-04-21 19:22 | 13.49503 | -16.74650 | 12882 ft | 324 kts | 151° |
| 2026-04-21 19:22 | 13.47598 | -16.73431 | 12262 ft | 322 kts | 141° |
| 2026-04-21 19:22 | 13.46031 | -16.71829 | 11661 ft | 319 kts | 131° |
| 2026-04-21 19:23 | 13.44608 | -16.70122 | 11041 ft | 315 kts | 130° |
| 2026-04-21 19:23 | 13.43190 | -16.68409 | 10437 ft | 312 kts | 131° |
| 2026-04-21 19:23 | 13.41789 | -16.66740 | 9843 ft | 308 kts | 131° |
| 2026-04-21 19:23 | 13.40395 | -16.65087 | 9248 ft | 304 kts | 131° |
| 2026-04-21 19:24 | 13.39022 | -16.63463 | 8657 ft | 301 kts | 131° |
| 2026-04-21 19:24 | 13.37645 | -16.61849 | 8061 ft | 299 kts | 131° |
| 2026-04-21 19:24 | 13.36272 | -16.60251 | 7463 ft | 296 kts | 131° |
| 2026-04-21 19:24 | 13.34917 | -16.58682 | 6865 ft | 293 kts | 131° |
| 2026-04-21 19:25 | 13.33578 | -16.57139 | 6272 ft | 292 kts | 131° |
| 2026-04-21 19:25 | 13.32222 | -16.55590 | 5674 ft | 290 kts | 131° |
| 2026-04-21 19:25 | 13.30866 | -16.54064 | 5074 ft | 288 kts | 130° |
| 2026-04-21 19:25 | 13.29509 | -16.52556 | 4477 ft | 287 kts | 131° |
| 2026-04-21 19:26 | 13.28159 | -16.51070 | 3878 ft | 287 kts | 130° |
| 2026-04-21 19:26 | 13.26785 | -16.49573 | 3270 ft | 286 kts | 130° |
| 2026-04-21 19:26 | 13.25432 | -16.48115 | 2676 ft | 286 kts | 131° |
| 2026-04-21 19:26 | 13.24052 | -16.46628 | 2169 ft | 284 kts | 131° |
| 2026-04-21 19:27 | 13.22711 | -16.45167 | 1985 ft | 277 kts | 131° |
| 2026-04-21 19:27 | 13.21406 | -16.43753 | 1971 ft | 268 kts | 131° |
| 2026-04-21 19:27 | 13.20165 | -16.42412 | 1987 ft | 249 kts | 131° |
| 2026-04-21 19:27 | 13.18998 | -16.41159 | 1971 ft | 235 kts | 131° |
| 2026-04-21 19:28 | 13.17891 | -16.39968 | 1986 ft | 224 kts | 131° |
| 2026-04-21 19:28 | 13.16777 | -16.38922 | 1961 ft | 209 kts | 146° |
| 2026-04-21 19:28 | 13.15484 | -16.38375 | 1963 ft | 196 kts | 170° |
| 2026-04-21 19:28 | 13.14155 | -16.38448 | 1980 ft | 192 kts | 201° |
| 2026-04-21 19:29 | 13.13050 | -16.39204 | 1976 ft | 190 kts | 238° |
| 2026-04-21 19:29 | 13.12627 | -16.40430 | 1986 ft | 180 kts | 269° |
| 2026-04-21 19:29 | 13.12921 | -16.41604 | 1970 ft | 168 kts | 313° |
| 2026-04-21 19:29 | 13.13768 | -16.42432 | 1982 ft | 170 kts | 317° |
| 2026-04-21 19:30 | 13.14582 | -16.43312 | 1970 ft | 165 kts | 315° |
| 2026-04-21 19:30 | 13.15376 | -16.44152 | 1970 ft | 167 kts | 316° |
| 2026-04-21 19:30 | 13.16211 | -16.45016 | 1976 ft | 169 kts | 318° |
| 2026-04-21 19:30 | 13.17026 | -16.45858 | 1970 ft | 166 kts | 318° |
| 2026-04-21 19:31 | 13.17884 | -16.46673 | 1974 ft | 167 kts | 321° |
| 2026-04-21 19:31 | 13.18713 | -16.47497 | 1971 ft | 169 kts | 316° |
| 2026-04-21 19:31 | 13.19509 | -16.48391 | 1963 ft | 167 kts | 315° |
| 2026-04-21 19:31 | 13.20288 | -16.49281 | 1973 ft | 168 kts | 314° |
| 2026-04-21 19:32 | 13.21073 | -16.50197 | 1974 ft | 170 kts | 314° |
| 2026-04-21 19:32 | 13.21827 | -16.51086 | 1965 ft | 160 kts | 314° |
| 2026-04-21 19:32 | 13.22553 | -16.51931 | 1972 ft | 157 kts | 314° |
| 2026-04-21 19:32 | 13.23278 | -16.52801 | 1971 ft | 158 kts | 314° |
| 2026-04-21 19:33 | 13.23752 | -16.53359 | 1963 ft | 151 kts | 315° |
| 2026-04-21 19:33 | 13.24634 | -16.54403 | 1988 ft | 144 kts | 315° |
| 2026-04-21 19:33 | 13.25295 | -16.55185 | 1977 ft | 147 kts | 314° |
| 2026-04-21 19:33 | 13.25957 | -16.55972 | 1966 ft | 140 kts | 316° |
| 2026-04-21 19:34 | 13.26610 | -16.56733 | 1872 ft | 143 kts | 315° |
| 2026-04-21 19:34 | 13.27257 | -16.57504 | 1682 ft | 142 kts | 314° |
| 2026-04-21 19:34 | 13.27896 | -16.58256 | 1498 ft | 140 kts | 314° |
| 2026-04-21 19:34 | 13.28530 | -16.59004 | 1316 ft | 140 kts | 313° |
| 2026-04-21 19:35 | 13.29183 | -16.59773 | 1138 ft | 143 kts | 312° |
| 2026-04-21 19:35 | 13.30457 | -16.61295 | 774 ft | 141 kts | 312° |
| 2026-04-21 19:35 | 13.31109 | -16.62042 | 586 ft | 140 kts | 310° |
| 2026-04-21 19:36 | 13.31747 | -16.62799 | 398 ft | 142 kts | 309° |
| 2026-04-21 19:36 | 13.32385 | -16.63559 | 222 ft | 141 kts | 310° |
| 2026-04-21 19:36 | 13.33024 | -16.64318 | 94 ft | 135 kts | 308° |
| 2026-04-21 19:36 | 13.33483 | -16.64868 | 97 ft | 66 kts | 311° |
| 2026-04-21 19:37 | 13.33706 | -16.65133 | 100 ft | 42 kts | 311° |
| 2026-04-21 19:37 | 13.33844 | -16.65268 | 100 ft | 15 kts | 353° |
| 2026-04-21 19:37 | 13.33916 | -16.65217 | 100 ft | 11 kts | 42° |
| 2026-04-21 19:37 | 13.33969 | -16.65180 | 102 ft | 7 kts | 10° |
| 2026-04-21 19:38 | 13.33996 | -16.65203 | 102 ft | 6 kts | 307° |
| 2026-04-21 19:38 | 13.34040 | -16.65262 | 102 ft | 11 kts | 310° |
| 2026-04-21 19:38 | 13.34092 | -16.65275 | 102 ft | 5 kts | 36° |
| 2026-04-21 19:38 | 13.34119 | -16.65250 | 103 ft | 4 kts | 41° |
| 2026-04-21 19:39 | 13.34143 | -16.65228 | 103 ft | 4 kts | 41° |
| 2026-04-21 19:39 | 13.34164 | -16.65209 | 103 ft | 3 kts | 43° |
| 2026-04-21 19:39 | 13.34164 | -16.65189 | 103 ft | 3 kts | 127° |
| 2026-04-21 19:39 | 13.34144 | -16.65168 | 103 ft | 4 kts | 132° |
| 2026-04-21 19:40 | 13.34126 | -16.65146 | 103 ft | 3 kts | 130° |
| 2026-04-21 19:40 | 13.34116 | -16.65135 | 103 ft | 1 kts | 130° |
| 2026-04-21 19:40 | 13.34114 | -16.65132 | 103 ft | 0 kts | 130° |